createdAt,value
2018-08-17T00:00:49.854Z,60320.66
2018-08-17T00:03:18.056Z,60332.85
2018-08-17T00:05:46.271Z,60308.46
2018-08-17T00:08:14.638Z,60319.64
2018-08-17T00:10:42.816Z,60306.43
2018-08-17T00:13:10.995Z,60318.62
2018-08-17T00:15:39.182Z,60322.69
2018-08-17T00:18:07.455Z,60330.82
2018-08-17T00:20:35.647Z,60330.82
2018-08-17T00:23:03.822Z,60313.54
2018-08-17T00:25:32.023Z,60301.35
2018-08-17T00:28:00.227Z,60347.08
2018-08-17T00:30:28.397Z,60322.69
2018-08-17T00:32:56.571Z,60331.84
2018-08-17T00:35:24.758Z,60309.48
2018-08-17T00:37:52.998Z,60308.46
2018-08-17T00:40:21.174Z,60340.98
2018-08-17T00:42:49.355Z,60321.67
2018-08-17T00:45:17.550Z,60310.50
2018-08-17T00:47:45.734Z,60320.66
2018-08-17T00:50:13.926Z,60310.50
2018-08-17T00:52:42.118Z,60362.32
2018-08-17T00:55:10.319Z,60324.72
2018-08-17T00:57:38.522Z,60338.95
2018-08-17T01:00:06.845Z,60331.84
2018-08-17T01:02:35.017Z,60328.79
2018-08-17T01:05:03.233Z,60326.75
2018-08-17T01:07:31.407Z,60318.62
2018-08-17T01:09:59.606Z,60289.16
2018-08-17T01:12:27.787Z,60314.56
2018-08-17T01:14:55.971Z,60327.77
2018-08-17T01:17:24.155Z,60335.90
2018-08-17T01:19:52.375Z,60316.59
2018-08-17T01:22:20.552Z,60344.03
2018-08-17T01:24:48.755Z,60324.72
2018-08-17T01:27:16.943Z,60345.04
2018-08-17T01:29:45.121Z,60329.80
2018-08-17T01:32:13.350Z,60338.95
2018-08-17T01:34:41.511Z,60329.80
2018-08-17T01:37:09.675Z,60336.91
2018-08-17T01:39:37.858Z,60332.85
2018-08-17T01:42:06.074Z,60329.80
2018-08-17T01:44:34.242Z,60339.96
2018-08-17T01:47:02.420Z,60342.00
2018-08-17T01:49:30.606Z,60340.98
2018-08-17T01:51:58.779Z,60324.72
2018-08-17T01:54:26.952Z,60333.87
2018-08-17T01:56:55.560Z,60332.85
2018-08-17T01:59:23.730Z,60326.75
2018-08-17T02:01:51.906Z,60379.59
2018-08-17T02:04:20.090Z,60314.56
2018-08-17T02:06:48.266Z,60334.88
2018-08-17T02:09:16.458Z,60329.80
2018-08-17T02:11:44.647Z,60328.79
2018-08-17T02:14:12.814Z,60331.84
2018-08-17T02:16:41.311Z,60327.77
2018-08-17T02:19:09.742Z,60305.41
2018-08-17T02:21:37.940Z,60327.77
2018-08-17T02:24:06.126Z,60321.67
2018-08-17T02:26:34.300Z,60329.80
2018-08-17T02:29:02.484Z,60331.84
2018-08-17T02:31:30.674Z,60328.79
2018-08-17T02:33:58.894Z,60344.03
2018-08-17T02:36:27.098Z,60338.95
2018-08-17T02:38:55.273Z,60339.96
2018-08-17T02:41:23.462Z,60334.88
2018-08-17T02:43:51.631Z,60313.54
2018-08-17T02:46:19.818Z,60319.64
2018-08-17T02:48:47.982Z,60338.95
2018-08-17T02:51:16.185Z,60323.71
2018-08-17T02:53:44.387Z,60318.62
2018-08-17T02:56:12.555Z,60328.79
2018-08-17T02:58:40.725Z,60328.79
2018-08-17T03:01:08.887Z,60326.75
2018-08-17T03:03:37.062Z,60358.25
2018-08-17T03:06:05.330Z,60348.09
2018-08-17T03:08:33.506Z,60362.32
2018-08-17T03:11:01.668Z,60337.93
2018-08-17T03:13:29.854Z,60329.80
2018-08-17T03:15:58.014Z,60328.79
2018-08-17T03:18:26.228Z,60362.32
2018-08-17T03:20:54.428Z,60343.01
2018-08-17T03:23:22.627Z,60352.16
2018-08-17T03:25:50.843Z,60352.16
2018-08-17T03:28:19.022Z,60351.14
2018-08-17T03:30:47.200Z,60353.18
2018-08-17T03:33:15.360Z,60343.01
2018-08-17T03:35:43.578Z,60365.37
2018-08-17T03:38:11.821Z,60353.18
2018-08-17T03:40:39.998Z,60352.16
2018-08-17T03:43:08.329Z,60337.93
2018-08-17T03:45:36.502Z,60352.16
2018-08-17T03:48:04.718Z,60357.24
2018-08-17T03:50:32.925Z,60357.24
2018-08-17T03:53:01.110Z,60333.87
2018-08-17T03:55:29.299Z,60354.19
2018-08-17T03:57:57.490Z,60348.09
2018-08-17T04:00:25.670Z,60371.46
2018-08-17T04:02:53.862Z,60374.52
2018-08-17T04:05:22.082Z,60347.08
2018-08-17T04:07:50.718Z,60351.14
2018-08-17T04:10:18.911Z,60379.59
2018-08-17T04:12:47.086Z,60366.39
2018-08-17T04:15:15.270Z,60362.32
2018-08-17T04:17:43.438Z,60358.25
2018-08-17T04:20:11.650Z,60358.25
2018-08-17T04:22:39.810Z,60363.34
2018-08-17T04:25:08.036Z,60355.21
2018-08-17T04:27:36.214Z,60351.14
2018-08-17T04:30:04.864Z,60361.30
2018-08-17T04:32:32.990Z,60352.16
2018-08-17T04:35:01.175Z,60356.22
2018-08-17T04:37:29.346Z,60339.96
2018-08-17T04:39:57.523Z,60357.24
2018-08-17T04:42:25.712Z,60365.37
2018-08-17T04:44:53.897Z,60381.63
2018-08-17T04:47:22.097Z,60387.72
2018-08-17T04:49:50.275Z,60370.45
2018-08-17T04:52:18.450Z,60383.66
2018-08-17T04:54:46.669Z,60374.52
2018-08-17T04:57:14.834Z,60355.21
2018-08-17T04:59:43.028Z,60357.24
2018-08-17T05:02:11.238Z,60372.48
2018-08-17T05:04:39.426Z,60367.40
2018-08-17T05:07:08.225Z,60369.43
2018-08-17T05:09:36.411Z,60366.39
2018-08-17T05:12:04.591Z,60350.12
2018-08-17T05:14:32.776Z,60369.43
2018-08-17T05:17:00.953Z,60347.08
2018-08-17T05:19:29.132Z,60371.46
2018-08-17T05:21:57.329Z,60366.39
2018-08-17T05:24:25.507Z,60355.21
2018-08-17T05:26:53.694Z,60367.40
2018-08-17T05:29:21.876Z,60368.42
2018-08-17T05:31:50.091Z,60351.14
2018-08-17T05:34:18.267Z,60378.58
2018-08-17T05:36:46.454Z,60344.03
2018-08-17T05:39:14.691Z,60348.09
2018-08-17T05:41:42.870Z,60352.16
2018-08-17T05:44:11.066Z,60347.08
2018-08-17T05:46:39.231Z,60365.37
2018-08-17T05:49:07.419Z,60344.03
2018-08-17T05:51:35.607Z,60357.24
2018-08-17T05:54:03.994Z,60356.22
2018-08-17T05:56:32.195Z,60340.98
2018-08-17T05:59:00.356Z,60335.90
2018-08-17T06:01:28.550Z,60357.24
2018-08-17T06:03:56.716Z,60358.25
2018-08-17T06:06:24.904Z,60338.95
2018-08-17T06:08:53.115Z,60349.11
2018-08-17T06:11:21.484Z,60351.14
2018-08-17T06:13:49.475Z,60353.18
2018-08-17T06:16:17.667Z,60343.01
2018-08-17T06:18:45.847Z,60377.56
2018-08-17T06:21:14.036Z,60365.37
2018-08-17T06:23:42.411Z,60357.24
2018-08-17T06:26:10.596Z,60361.30
2018-08-17T06:28:38.790Z,60397.89
2018-08-17T06:31:07.030Z,60390.77
2018-08-17T06:33:35.222Z,60379.59
2018-08-17T06:36:03.482Z,60377.56
2018-08-17T06:38:31.619Z,60386.71
2018-08-17T06:40:59.807Z,60375.53
2018-08-17T06:43:28.086Z,60387.72
2018-08-17T06:45:56.270Z,60399.92
2018-08-17T06:48:24.459Z,60384.68
2018-08-17T06:50:52.759Z,60385.69
2018-08-17T06:53:20.839Z,60378.58
2018-08-17T06:55:49.017Z,60371.46
2018-08-17T06:58:17.187Z,60378.58
2018-08-17T07:00:45.390Z,60403.98
2018-08-17T07:03:13.567Z,60363.34
2018-08-17T07:05:41.742Z,60401.95
2018-08-17T07:08:09.915Z,60410.08
2018-08-17T07:10:38.094Z,60390.77
2018-08-17T07:13:06.302Z,60370.45
2018-08-17T07:15:34.491Z,60398.90
2018-08-17T07:18:02.669Z,60370.45
2018-08-17T07:20:30.841Z,60384.68
2018-08-17T07:22:59.042Z,60399.92
2018-08-17T07:25:27.223Z,60370.45
2018-08-17T07:27:55.424Z,60411.10
2018-08-17T07:30:23.582Z,60368.42
2018-08-17T07:32:51.776Z,60387.72
2018-08-17T07:35:19.962Z,60382.64
2018-08-17T07:37:48.148Z,60398.90
2018-08-17T07:40:16.331Z,60377.56
2018-08-17T07:42:44.522Z,60385.69
2018-08-17T07:45:12.697Z,60388.74
2018-08-17T07:47:40.907Z,60386.71
2018-08-17T07:50:11.379Z,60392.80
2018-08-17T07:52:39.563Z,60392.80
2018-08-17T07:55:07.763Z,60364.35
2018-08-17T07:57:35.954Z,60406.02
2018-08-17T08:00:04.730Z,60378.58
2018-08-17T08:02:32.939Z,60416.18
2018-08-17T08:05:01.105Z,60369.43
2018-08-17T08:07:29.316Z,60374.52
2018-08-17T08:09:57.510Z,60385.69
2018-08-17T08:12:25.671Z,60391.79
2018-08-17T08:14:53.841Z,60366.39
2018-08-17T08:17:22.054Z,60363.34
2018-08-17T08:20:01.530Z,60370.45
2018-08-17T08:22:29.718Z,60352.16
2018-08-17T08:24:57.906Z,60355.21
2018-08-17T08:27:26.066Z,60365.37
2018-08-17T08:29:54.244Z,60335.90
2018-08-17T08:32:22.473Z,60388.74
2018-08-17T08:34:50.614Z,60346.06
2018-08-17T08:37:20.322Z,60366.39
2018-08-17T08:39:48.503Z,60370.45
2018-08-17T08:42:16.655Z,60376.55
2018-08-17T08:44:44.834Z,60343.01
2018-08-17T08:47:13.049Z,60352.16
2018-08-17T08:49:41.214Z,60345.04
2018-08-17T08:52:09.387Z,60367.40
2018-08-17T08:54:37.563Z,60377.56
2018-08-17T08:57:06.206Z,60355.21
2018-08-17T08:59:34.379Z,60348.09
2018-08-17T09:02:02.554Z,60344.03
2018-08-17T09:04:30.745Z,60352.16
2018-08-17T09:06:59.003Z,60330.82
2018-08-17T09:09:27.161Z,60362.32
2018-08-17T09:11:55.328Z,60329.80
2018-08-17T09:14:23.494Z,60337.93
2018-08-17T09:16:51.650Z,60340.98
2018-08-17T09:19:19.820Z,60342.00
2018-08-17T09:21:48.000Z,60330.82
2018-08-17T09:24:16.181Z,60360.29
2018-08-17T09:26:44.387Z,60353.18
2018-08-17T09:29:12.632Z,60361.30
2018-08-17T09:31:40.744Z,60354.19
2018-08-17T09:34:08.938Z,60358.25
2018-08-17T09:36:37.105Z,60357.24
2018-08-17T09:39:07.264Z,60381.63
2018-08-17T09:41:35.499Z,60366.39
2018-08-17T09:44:03.675Z,60363.34
2018-08-17T09:46:31.848Z,60371.46
2018-08-17T09:49:00.535Z,60358.25
2018-08-17T09:51:28.784Z,60375.53
2018-08-17T09:53:56.909Z,60374.52
2018-08-17T09:56:25.089Z,60351.14
2018-08-17T09:58:53.262Z,60371.46
2018-08-17T10:01:26.909Z,60346.06
2018-08-17T10:04:00.514Z,60378.58
2018-08-17T10:06:34.031Z,60361.30
2018-08-17T10:09:07.611Z,60362.32
2018-08-17T10:11:35.784Z,60363.34
2018-08-17T10:14:03.958Z,60376.55
2018-08-17T10:16:32.134Z,60364.35
2018-08-17T10:19:00.311Z,60364.35
2018-08-17T10:21:29.683Z,60366.39
2018-08-17T10:23:57.543Z,60351.14
2018-08-17T10:26:25.707Z,60359.27
2018-08-17T10:28:53.904Z,60346.06
2018-08-17T10:31:22.067Z,60352.16
2018-08-17T10:33:50.249Z,60369.43
2018-08-17T10:36:18.410Z,60343.01
2018-08-17T10:38:46.578Z,60359.27
2018-08-17T10:41:14.782Z,60353.18
2018-08-17T10:43:42.974Z,60347.08
2018-08-17T10:46:11.145Z,60336.91
2018-08-17T10:48:39.336Z,60348.09
2018-08-17T10:51:07.481Z,60335.90
2018-08-17T10:53:41.686Z,60336.91
2018-08-17T10:56:09.866Z,60327.77
2018-08-17T10:58:38.030Z,60323.71
2018-08-17T11:01:06.250Z,60305.41
2018-08-17T11:03:34.430Z,60340.98
2018-08-17T11:06:02.621Z,60345.04
2018-08-17T11:08:30.790Z,60322.69
2018-08-17T11:10:59.001Z,60340.98
2018-08-17T11:13:27.173Z,60334.88
2018-08-17T11:15:55.309Z,60342.00
2018-08-17T11:18:23.546Z,60317.61
2018-08-17T11:20:53.572Z,60328.79
2018-08-17T11:23:22.109Z,60334.88
2018-08-17T11:25:50.305Z,60350.12
2018-08-17T11:28:18.495Z,60335.90
2018-08-17T11:30:46.661Z,60320.66
2018-08-17T11:33:14.850Z,60327.77
2018-08-17T11:35:43.019Z,60345.04
2018-08-17T11:38:15.519Z,60333.87
2018-08-17T11:40:43.710Z,60332.85
2018-08-17T11:43:11.896Z,60333.87
2018-08-17T11:45:45.258Z,60313.54
2018-08-17T11:48:25.786Z,60349.11
2018-08-17T11:50:54.263Z,60315.57
2018-08-17T11:53:22.467Z,60323.71
2018-08-17T11:55:50.680Z,60324.72
2018-08-17T11:58:18.855Z,60321.67
2018-08-17T12:00:47.054Z,60314.56
2018-08-17T12:03:15.282Z,60308.46
2018-08-17T12:05:43.475Z,60301.35
2018-08-17T12:08:11.745Z,60311.51
2018-08-17T12:10:39.864Z,60288.14
2018-08-17T12:13:13.366Z,60302.37
2018-08-17T12:15:48.726Z,60309.48
2018-08-17T12:18:16.993Z,60324.72
2018-08-17T12:20:45.179Z,60320.66
2018-08-17T12:23:13.391Z,60307.45
2018-08-17T12:25:47.079Z,60311.51
2018-08-17T12:28:15.286Z,60298.30
2018-08-17T12:30:43.464Z,60292.21
2018-08-17T12:33:12.627Z,60302.37
2018-08-17T12:35:41.002Z,60305.41
2018-08-17T12:38:14.306Z,60287.12
2018-08-17T12:40:47.895Z,60291.19
2018-08-17T12:43:18.327Z,60292.21
2018-08-17T12:45:46.702Z,60285.09
2018-08-17T12:48:15.907Z,60290.17
2018-08-17T12:50:44.590Z,60300.34
2018-08-17T12:53:13.082Z,60294.24
2018-08-17T12:55:41.320Z,60299.32
2018-08-17T12:58:09.630Z,60308.46
2018-08-17T13:00:37.998Z,60317.61
2018-08-17T13:03:06.214Z,60302.37
2018-08-17T13:05:34.370Z,60281.03
2018-08-17T13:08:02.558Z,60312.53
2018-08-17T13:10:30.718Z,60300.34
2018-08-17T13:13:04.174Z,60302.37
2018-08-17T13:15:32.351Z,60320.66
2018-08-17T13:18:08.450Z,60331.84
2018-08-17T13:20:36.641Z,60311.51
2018-08-17T13:23:04.871Z,60304.40
2018-08-17T13:25:33.023Z,60310.50
2018-08-17T13:28:01.210Z,60313.54
2018-08-17T13:30:29.390Z,60329.80
2018-08-17T13:32:57.572Z,60301.35
2018-08-17T13:35:25.815Z,60302.37
2018-08-17T13:37:54.022Z,60309.48
2018-08-17T13:40:22.191Z,60300.34
2018-08-17T13:42:50.378Z,60309.48
2018-08-17T13:45:18.560Z,60291.19
2018-08-17T13:47:46.738Z,60289.16
2018-08-17T13:50:14.926Z,60316.59
2018-08-17T13:52:43.122Z,60319.64
2018-08-17T13:55:11.295Z,60292.21
2018-08-17T13:57:39.512Z,60293.22
2018-08-17T14:00:09.455Z,60290.17
2018-08-17T14:02:37.681Z,60295.25
2018-08-17T14:05:06.694Z,60315.57
2018-08-17T14:07:34.867Z,60321.67
2018-08-17T14:10:03.176Z,60304.40
2018-08-17T14:12:31.318Z,60297.29
2018-08-17T14:14:59.615Z,60309.48
2018-08-17T14:17:27.814Z,60313.54
2018-08-17T14:19:56.032Z,60297.29
2018-08-17T14:22:24.328Z,60310.50
2018-08-17T14:24:52.421Z,60301.35
2018-08-17T14:27:20.606Z,60302.37
2018-08-17T14:29:48.787Z,60299.32
2018-08-17T14:32:16.971Z,60319.64
2018-08-17T14:34:45.154Z,60291.19
2018-08-17T14:37:13.322Z,60288.14
2018-08-17T14:39:41.517Z,60283.06
2018-08-17T14:42:09.719Z,60291.19
2018-08-17T14:44:37.891Z,60295.25
2018-08-17T14:47:06.118Z,60294.24
2018-08-17T14:49:34.363Z,60268.83
2018-08-17T14:52:02.815Z,60304.40
2018-08-17T14:54:30.979Z,60281.03
2018-08-17T14:56:59.164Z,60282.04
2018-08-17T14:59:27.334Z,60288.14
2018-08-17T15:01:55.502Z,60292.21
2018-08-17T15:04:23.670Z,60296.27
2018-08-17T15:06:51.859Z,60294.24
2018-08-17T15:09:20.033Z,60285.09
2018-08-17T15:11:48.212Z,60264.77
2018-08-17T15:14:16.406Z,60296.27
2018-08-17T15:16:44.615Z,60286.11
2018-08-17T15:19:12.819Z,60286.11
2018-08-17T15:21:41.443Z,60256.64
2018-08-17T15:24:10.231Z,60287.12
2018-08-17T15:26:38.471Z,60286.11
2018-08-17T15:29:06.628Z,60286.11
2018-08-17T15:31:35.243Z,60296.27
2018-08-17T15:34:03.456Z,60264.77
2018-08-17T15:36:31.666Z,60292.21
2018-08-17T15:38:59.864Z,60305.41
2018-08-17T15:41:28.158Z,60288.14
2018-08-17T15:43:56.282Z,60303.38
2018-08-17T15:46:24.512Z,60275.95
2018-08-17T15:48:54.230Z,60308.46
2018-08-17T15:51:22.421Z,60288.14
2018-08-17T15:53:50.889Z,60301.35
2018-08-17T15:56:19.150Z,60283.06
2018-08-17T15:58:47.410Z,60308.46
2018-08-17T16:01:15.612Z,60285.09
2018-08-17T16:03:43.803Z,60300.34
2018-08-17T16:06:12.011Z,60301.35
2018-08-17T16:08:40.310Z,60292.21
2018-08-17T16:11:09.020Z,60285.09
2018-08-17T16:13:37.175Z,60302.37
2018-08-17T16:16:05.675Z,60284.07
2018-08-17T16:18:34.154Z,60283.06
2018-08-17T16:21:02.347Z,60286.11
2018-08-17T16:23:30.538Z,60297.29
2018-08-17T16:25:58.736Z,60277.98
2018-08-17T16:28:26.912Z,60304.40
2018-08-17T16:30:55.103Z,60285.09
2018-08-17T16:33:23.277Z,60293.22
2018-08-17T16:35:51.455Z,60309.48
2018-08-17T16:38:19.634Z,60270.87
2018-08-17T16:40:50.526Z,60285.09
2018-08-17T16:43:23.474Z,60271.88
2018-08-17T16:45:51.718Z,60305.41
2018-08-17T16:48:20.250Z,60306.43
2018-08-17T16:50:48.458Z,60290.17
2018-08-17T16:53:16.646Z,60296.27
2018-08-17T16:55:44.810Z,60304.40
2018-08-17T16:58:12.977Z,60293.22
2018-08-17T17:00:41.234Z,60312.53
2018-08-17T17:03:09.342Z,60302.37
2018-08-17T17:05:37.506Z,60291.19
2018-08-17T17:08:05.772Z,60281.03
2018-08-17T17:10:33.974Z,60276.96
2018-08-17T17:13:02.162Z,60274.93
2018-08-17T17:15:30.328Z,60273.91
2018-08-17T17:18:03.850Z,60304.40
2018-08-17T17:20:34.555Z,60291.19
2018-08-17T17:23:03.430Z,60280.01
2018-08-17T17:25:31.609Z,60293.22
2018-08-17T17:27:59.774Z,60303.38
2018-08-17T17:30:43.136Z,60301.35
2018-08-17T17:33:11.639Z,60298.30
2018-08-17T17:35:41.862Z,60304.40
2018-08-17T17:38:10.452Z,60305.41
2018-08-17T17:40:38.935Z,60307.45
2018-08-17T17:43:07.415Z,60297.29
2018-08-17T17:45:36.064Z,60309.48
2018-08-17T17:48:04.286Z,60281.03
2018-08-17T17:50:32.493Z,60313.54
2018-08-17T17:53:01.846Z,60296.27
2018-08-17T17:55:41.089Z,60294.24
2018-08-17T17:58:09.692Z,60312.53
2018-08-17T18:00:37.860Z,60317.61
2018-08-17T18:03:06.270Z,60268.83
2018-08-17T18:05:34.438Z,60329.80
2018-08-17T18:08:07.715Z,60323.71
2018-08-17T18:10:35.894Z,60302.37
2018-08-17T18:13:04.090Z,60323.71
2018-08-17T18:15:32.238Z,60305.41
2018-08-17T18:18:00.427Z,60333.87
2018-08-17T18:20:28.595Z,60301.35
2018-08-17T18:22:56.779Z,60312.53
2018-08-17T18:25:24.969Z,60301.35
2018-08-17T18:27:53.164Z,60306.43
2018-08-17T18:30:21.322Z,60312.53
2018-08-17T18:32:49.500Z,60320.66
2018-08-17T18:35:17.797Z,60327.77
2018-08-17T18:37:45.870Z,60311.51
2018-08-17T18:40:14.080Z,60322.69
2018-08-17T18:42:42.246Z,60283.06
2018-08-17T18:45:10.442Z,60299.32
2018-08-17T18:47:38.619Z,60321.67
2018-08-17T18:50:07.430Z,60332.85
2018-08-17T18:52:35.641Z,60316.59
2018-08-17T18:55:04.087Z,60318.62
2018-08-17T18:57:32.173Z,60321.67
2018-08-17T19:00:00.471Z,60355.21
2018-08-17T19:02:28.652Z,60345.04
2018-08-17T19:04:56.834Z,60337.93
2018-08-17T19:07:25.022Z,60310.50
2018-08-17T19:09:53.220Z,60338.95
2018-08-17T19:12:21.387Z,60324.72
2018-08-17T19:14:50.739Z,60334.88
2018-08-17T19:17:34.558Z,60350.12
2018-08-17T19:20:02.769Z,60349.11
2018-08-17T19:22:38.126Z,60320.66
2018-08-17T19:25:07.396Z,60319.64
2018-08-17T19:27:36.728Z,60342.00
2018-08-17T19:30:08.872Z,60349.11
2018-08-17T19:32:37.043Z,60363.34
2018-08-17T19:35:05.234Z,60359.27
2018-08-17T19:37:33.906Z,60359.27
2018-08-17T19:40:02.149Z,60360.29
2018-08-17T19:42:30.350Z,60364.35
2018-08-17T19:44:58.549Z,60359.27
2018-08-17T19:47:26.731Z,60340.98
2018-08-17T19:49:54.909Z,60348.09
2018-08-17T19:52:23.074Z,60363.34
2018-08-17T19:54:51.243Z,60345.04
2018-08-17T19:57:19.428Z,60363.34
2018-08-17T19:59:47.606Z,60342.00
2018-08-17T20:02:15.789Z,60348.09
2018-08-17T20:04:43.962Z,60352.16
2018-08-17T20:07:12.158Z,60349.11
2018-08-17T20:09:40.329Z,60351.14
2018-08-17T20:12:08.542Z,60374.52
2018-08-17T20:14:36.718Z,60387.72
2018-08-17T20:17:04.906Z,60376.55
2018-08-17T20:19:38.446Z,60383.66
2018-08-17T20:22:18.901Z,60366.39
2018-08-17T20:24:47.346Z,60386.71
2018-08-17T20:27:15.922Z,60380.61
2018-08-17T20:29:44.308Z,60371.46
2018-08-17T20:32:12.503Z,60359.27
2018-08-17T20:34:43.822Z,60359.27
2018-08-17T20:37:13.138Z,60379.59
2018-08-17T20:39:42.646Z,60407.03
2018-08-17T20:42:11.418Z,60394.84
2018-08-17T20:44:39.632Z,60367.40
2018-08-17T20:47:08.338Z,60384.68
2018-08-17T20:49:36.554Z,60374.52
2018-08-17T20:52:05.047Z,60382.64
2018-08-17T20:54:33.527Z,60390.77
2018-08-17T20:57:02.048Z,60379.59
2018-08-17T20:59:30.380Z,60391.79
2018-08-17T21:01:59.175Z,60393.82
2018-08-17T21:04:27.359Z,60410.08
2018-08-17T21:06:55.534Z,60393.82
2018-08-17T21:09:23.718Z,60395.86
2018-08-17T21:11:51.902Z,60370.45
2018-08-17T21:14:20.103Z,60380.61
2018-08-17T21:16:48.288Z,60400.93
2018-08-17T21:19:16.527Z,60393.82
2018-08-17T21:21:44.751Z,60372.48
2018-08-17T21:24:12.899Z,60377.56
2018-08-17T21:26:41.095Z,60373.50
2018-08-17T21:29:09.343Z,60388.74
2018-08-17T21:31:37.459Z,60395.86
2018-08-17T21:34:05.681Z,60384.68
2018-08-17T21:36:33.871Z,60373.50
2018-08-17T21:39:17.956Z,60389.76
2018-08-17T21:41:47.405Z,60394.84
2018-08-17T21:44:16.870Z,60407.03
2018-08-17T21:46:51.357Z,60378.58
2018-08-17T21:49:20.083Z,60382.64
2018-08-17T21:51:48.258Z,60350.12
2018-08-17T21:54:18.090Z,60408.05
2018-08-17T21:56:46.341Z,60415.16
2018-08-17T21:59:14.514Z,60390.77
2018-08-17T22:01:42.736Z,60413.13
2018-08-17T22:04:10.933Z,60393.82
2018-08-17T22:06:39.119Z,60398.90
2018-08-17T22:09:08.644Z,60394.84
2018-08-17T22:11:37.134Z,60418.21
2018-08-17T22:14:05.774Z,60381.63
2018-08-17T22:16:33.974Z,60394.84
2018-08-17T22:19:02.224Z,60416.18
2018-08-17T22:21:30.440Z,60374.52
2018-08-17T22:23:58.836Z,60398.90
2018-08-17T22:26:26.971Z,60395.86
2018-08-17T22:28:55.271Z,60393.82
2018-08-17T22:31:35.865Z,60395.86
2018-08-17T22:34:04.211Z,60428.37
2018-08-17T22:36:32.395Z,60410.08
2018-08-17T22:39:00.594Z,60415.16
2018-08-17T22:41:28.834Z,60395.86
2018-08-17T22:43:57.656Z,60415.16
2018-08-17T22:46:25.847Z,60419.23
2018-08-17T22:48:54.323Z,60410.08
2018-08-17T22:51:22.444Z,60402.97
2018-08-17T22:53:50.634Z,60402.97
2018-08-17T22:56:18.835Z,60424.31
2018-08-17T22:58:49.956Z,60415.16
2018-08-17T23:01:19.806Z,60410.08
2018-08-17T23:03:54.690Z,60418.21
2018-08-17T23:06:24.392Z,60400.93
2018-08-17T23:08:52.602Z,60388.74
2018-08-17T23:11:28.818Z,60402.97
2018-08-17T23:13:59.279Z,60396.87
2018-08-17T23:16:27.467Z,60412.11
2018-08-17T23:18:55.657Z,60425.32
2018-08-17T23:21:23.858Z,60422.27
2018-08-17T23:23:52.068Z,60422.27
2018-08-17T23:26:20.243Z,60398.90
2018-08-17T23:28:48.415Z,60381.63
2018-08-17T23:31:16.614Z,60408.05
2018-08-17T23:33:44.786Z,60390.77
2018-08-17T23:36:12.967Z,60393.82
2018-08-17T23:38:41.162Z,60423.29
2018-08-17T23:41:09.353Z,60405.00
2018-08-17T23:43:37.539Z,60434.47
2018-08-17T23:46:05.839Z,60423.29
2018-08-17T23:48:34.018Z,60415.16
2018-08-17T23:51:02.202Z,60409.07
2018-08-17T23:53:30.435Z,60418.21
2018-08-17T23:55:58.614Z,60433.45
2018-08-17T23:58:26.811Z,60416.18
